sensor_id;sensor_type;location;lat;lon;timestamp;P1;durP1;ratioP1;P2;durP2;ratioP2
51925;SDS011;37952;51.938;15.480;2023-03-01T00:01:05;22.10;;;13.50;;
51925;SDS011;37952;51.938;15.480;2023-03-01T00:04:10;14.70;;;11.10;;
51925;SDS011;37952;51.938;15.480;2023-03-01T00:07:13;14.60;;;11.50;;
51925;SDS011;37952;51.938;15.480;2023-03-01T00:10:16;14.80;;;11.70;;
51925;SDS011;37952;51.938;15.480;2023-03-01T00:13:20;18.20;;;11.20;;
51925;SDS011;37952;51.938;15.480;2023-03-01T00:16:24;16.60;;;13.00;;
51925;SDS011;37952;51.938;15.480;2023-03-01T00:19:30;18.80;;;12.50;;
51925;SDS011;37952;51.938;15.480;2023-03-01T00:22:35;21.70;;;12.30;;
51925;SDS011;37952;51.938;15.480;2023-03-01T00:25:42;18.70;;;11.90;;
51925;SDS011;37952;51.938;15.480;2023-03-01T00:28:45;13.60;;;11.40;;
51925;SDS011;37952;51.938;15.480;2023-03-01T00:31:49;15.40;;;11.40;;
51925;SDS011;37952;51.938;15.480;2023-03-01T00:34:52;14.00;;;11.30;;
51925;SDS011;37952;51.938;15.480;2023-03-01T00:37:58;20.90;;;13.50;;
51925;SDS011;37952;51.938;15.480;2023-03-01T00:41:05;29.20;;;16.80;;
51925;SDS011;37952;51.938;15.480;2023-03-01T00:44:09;23.50;;;14.70;;
51925;SDS011;37952;51.938;15.480;2023-03-01T00:55:18;21.10;;;14.20;;
51925;SDS011;37952;51.938;15.480;2023-03-01T00:58:21;13.90;;;12.00;;
51925;SDS011;37952;51.938;15.480;2023-03-01T01:01:25;15.80;;;12.00;;
51925;SDS011;37952;51.938;15.480;2023-03-01T01:04:32;18.00;;;13.20;;
51925;SDS011;37952;51.938;15.480;2023-03-01T01:07:35;23.30;;;13.20;;
51925;SDS011;37952;51.938;15.480;2023-03-01T01:10:38;16.20;;;11.50;;
51925;SDS011;37952;51.938;15.480;2023-03-01T01:13:41;17.60;;;11.90;;
51925;SDS011;37952;51.938;15.480;2023-03-01T01:16:46;17.50;;;11.70;;
51925;SDS011;37952;51.938;15.480;2023-03-01T01:19:49;14.70;;;11.90;;
51925;SDS011;37952;51.938;15.480;2023-03-01T01:22:52;20.00;;;11.60;;
51925;SDS011;37952;51.938;15.480;2023-03-01T01:25:56;15.20;;;12.20;;
51925;SDS011;37952;51.938;15.480;2023-03-01T01:29:00;13.00;;;11.30;;
51925;SDS011;37952;51.938;15.480;2023-03-01T01:32:09;16.60;;;11.60;;
51925;SDS011;37952;51.938;15.480;2023-03-01T01:35:12;14.90;;;11.90;;
51925;SDS011;37952;51.938;15.480;2023-03-01T01:42:22;19.90;;;12.90;;
51925;SDS011;37952;51.938;15.480;2023-03-01T01:45:37;20.10;;;13.10;;
51925;SDS011;37952;51.938;15.480;2023-03-01T01:48:41;19.40;;;13.20;;
51925;SDS011;37952;51.938;15.480;2023-03-01T01:51:47;18.70;;;12.90;;
51925;SDS011;37952;51.938;15.480;2023-03-01T01:55:14;18.30;;;12.70;;
51925;SDS011;37952;51.938;15.480;2023-03-01T01:58:24;13.10;;;11.40;;
51925;SDS011;37952;51.938;15.480;2023-03-01T02:01:30;13.50;;;11.50;;
51925;SDS011;37952;51.938;15.480;2023-03-01T02:04:33;16.70;;;13.30;;
51925;SDS011;37952;51.938;15.480;2023-03-01T02:07:36;24.30;;;13.90;;
51925;SDS011;37952;51.938;15.480;2023-03-01T02:10:41;18.50;;;13.20;;
51925;SDS011;37952;51.938;15.480;2023-03-01T02:13:46;17.20;;;12.30;;
51925;SDS011;37952;51.938;15.480;2023-03-01T02:16:49;15.10;;;11.60;;
51925;SDS011;37952;51.938;15.480;2023-03-01T02:23:23;16.50;;;12.40;;
51925;SDS011;37952;51.938;15.480;2023-03-01T02:26:32;17.70;;;12.00;;
51925;SDS011;37952;51.938;15.480;2023-03-01T02:29:43;22.70;;;12.90;;
51925;SDS011;37952;51.938;15.480;2023-03-01T02:36:29;18.40;;;13.10;;
51925;SDS011;37952;51.938;15.480;2023-03-01T02:39:37;15.70;;;12.10;;
51925;SDS011;37952;51.938;15.480;2023-03-01T02:42:50;17.50;;;13.00;;
51925;SDS011;37952;51.938;15.480;2023-03-01T02:45:57;17.70;;;13.00;;
51925;SDS011;37952;51.938;15.480;2023-03-01T02:49:16;19.80;;;12.10;;
51925;SDS011;37952;51.938;15.480;2023-03-01T02:52:41;14.70;;;11.50;;
51925;SDS011;37952;51.938;15.480;2023-03-01T02:56:07;16.30;;;12.20;;
51925;SDS011;37952;51.938;15.480;2023-03-01T02:59:19;18.50;;;13.50;;
51925;SDS011;37952;51.938;15.480;2023-03-01T03:07:27;23.80;;;15.30;;
51925;SDS011;37952;51.938;15.480;2023-03-01T03:10:32;24.80;;;17.40;;
51925;SDS011;37952;51.938;15.480;2023-03-01T03:13:36;22.80;;;15.60;;
51925;SDS011;37952;51.938;15.480;2023-03-01T03:22:52;18.40;;;13.70;;
51925;SDS011;37952;51.938;15.480;2023-03-01T03:25:56;28.30;;;15.60;;
51925;SDS011;37952;51.938;15.480;2023-03-01T03:29:04;22.00;;;15.50;;
51925;SDS011;37952;51.938;15.480;2023-03-01T03:36:57;23.20;;;14.90;;
51925;SDS011;37952;51.938;15.480;2023-03-01T03:40:01;24.20;;;14.60;;
51925;SDS011;37952;51.938;15.480;2023-03-01T03:47:54;19.20;;;12.70;;
51925;SDS011;37952;51.938;15.480;2023-03-01T03:50:57;21.90;;;14.20;;
51925;SDS011;37952;51.938;15.480;2023-03-01T03:54:00;17.50;;;13.60;;
51925;SDS011;37952;51.938;15.480;2023-03-01T03:57:02;20.70;;;14.30;;
51925;SDS011;37952;51.938;15.480;2023-03-01T04:04:55;19.60;;;13.80;;
51925;SDS011;37952;51.938;15.480;2023-03-01T04:08:02;18.50;;;14.40;;
51925;SDS011;37952;51.938;15.480;2023-03-01T04:11:05;19.10;;;14.40;;
51925;SDS011;37952;51.938;15.480;2023-03-01T04:14:27;19.10;;;14.60;;
51925;SDS011;37952;51.938;15.480;2023-03-01T04:17:36;17.40;;;14.30;;
51925;SDS011;37952;51.938;15.480;2023-03-01T04:20:38;20.70;;;15.60;;
51925;SDS011;37952;51.938;15.480;2023-03-01T04:23:42;21.20;;;14.80;;
51925;SDS011;37952;51.938;15.480;2023-03-01T04:26:45;20.60;;;14.10;;
51925;SDS011;37952;51.938;15.480;2023-03-01T04:29:49;18.10;;;13.90;;
51925;SDS011;37952;51.938;15.480;2023-03-01T04:32:52;21.30;;;13.90;;
51925;SDS011;37952;51.938;15.480;2023-03-01T04:35:55;18.50;;;13.40;;
51925;SDS011;37952;51.938;15.480;2023-03-01T04:39:00;18.20;;;13.60;;
51925;SDS011;37952;51.938;15.480;2023-03-01T04:48:48;14.40;;;11.50;;
51925;SDS011;37952;51.938;15.480;2023-03-01T04:56:47;14.60;;;12.00;;
51925;SDS011;37952;51.938;15.480;2023-03-01T04:59:50;18.40;;;13.50;;
51925;SDS011;37952;51.938;15.480;2023-03-01T05:02:57;21.30;;;14.40;;
51925;SDS011;37952;51.938;15.480;2023-03-01T05:06:02;19.30;;;13.70;;
51925;SDS011;37952;51.938;15.480;2023-03-01T05:09:05;24.20;;;12.90;;
51925;SDS011;37952;51.938;15.480;2023-03-01T05:12:08;18.50;;;13.30;;
51925;SDS011;37952;51.938;15.480;2023-03-01T05:18:41;15.40;;;12.70;;
51925;SDS011;37952;51.938;15.480;2023-03-01T05:21:45;19.20;;;13.10;;
51925;SDS011;37952;51.938;15.480;2023-03-01T05:25:07;17.00;;;14.20;;
51925;SDS011;37952;51.938;15.480;2023-03-01T05:28:24;19.00;;;14.20;;
51925;SDS011;37952;51.938;15.480;2023-03-01T05:31:28;17.10;;;13.00;;
51925;SDS011;37952;51.938;15.480;2023-03-01T05:34:34;20.60;;;13.40;;
51925;SDS011;37952;51.938;15.480;2023-03-01T05:41:13;14.30;;;12.80;;
51925;SDS011;37952;51.938;15.480;2023-03-01T05:49:14;20.30;;;13.40;;
51925;SDS011;37952;51.938;15.480;2023-03-01T05:52:18;20.00;;;13.10;;
51925;SDS011;37952;51.938;15.480;2023-03-01T05:58:50;21.00;;;13.80;;
51925;SDS011;37952;51.938;15.480;2023-03-01T06:01:53;20.60;;;13.60;;
51925;SDS011;37952;51.938;15.480;2023-03-01T06:09:21;14.50;;;11.60;;
51925;SDS011;37952;51.938;15.480;2023-03-01T06:17:25;16.30;;;12.40;;
51925;SDS011;37952;51.938;15.480;2023-03-01T06:20:31;16.00;;;12.70;;
51925;SDS011;37952;51.938;15.480;2023-03-01T06:23:34;16.70;;;12.50;;
51925;SDS011;37952;51.938;15.480;2023-03-01T06:31:32;12.50;;;11.30;;
51925;SDS011;37952;51.938;15.480;2023-03-01T06:34:35;17.00;;;11.60;;
51925;SDS011;37952;51.938;15.480;2023-03-01T06:37:38;19.60;;;13.20;;
51925;SDS011;37952;51.938;15.480;2023-03-01T06:40:42;20.60;;;14.40;;
51925;SDS011;37952;51.938;15.480;2023-03-01T06:43:45;23.40;;;14.70;;
51925;SDS011;37952;51.938;15.480;2023-03-01T06:46:48;17.20;;;13.90;;
51925;SDS011;37952;51.938;15.480;2023-03-01T06:50:03;22.50;;;16.90;;
51925;SDS011;37952;51.938;15.480;2023-03-01T06:53:06;23.60;;;18.00;;
51925;SDS011;37952;51.938;15.480;2023-03-01T06:56:09;28.20;;;20.00;;
51925;SDS011;37952;51.938;15.480;2023-03-01T06:59:12;32.70;;;23.50;;
51925;SDS011;37952;51.938;15.480;2023-03-01T07:02:15;41.00;;;26.80;;
51925;SDS011;37952;51.938;15.480;2023-03-01T07:05:19;43.80;;;25.50;;
51925;SDS011;37952;51.938;15.480;2023-03-01T07:08:22;39.50;;;23.80;;
51925;SDS011;37952;51.938;15.480;2023-03-01T07:11:25;42.30;;;25.10;;
51925;SDS011;37952;51.938;15.480;2023-03-01T07:14:27;40.70;;;23.40;;
51925;SDS011;37952;51.938;15.480;2023-03-01T07:17:31;33.40;;;21.20;;
51925;SDS011;37952;51.938;15.480;2023-03-01T07:20:34;33.50;;;21.30;;
51925;SDS011;37952;51.938;15.480;2023-03-01T07:23:37;34.20;;;20.70;;
51925;SDS011;37952;51.938;15.480;2023-03-01T07:26:40;29.40;;;20.00;;
51925;SDS011;37952;51.938;15.480;2023-03-01T07:33:36;25.70;;;17.50;;
51925;SDS011;37952;51.938;15.480;2023-03-01T07:36:39;23.20;;;15.80;;
51925;SDS011;37952;51.938;15.480;2023-03-01T07:39:44;19.80;;;15.30;;
51925;SDS011;37952;51.938;15.480;2023-03-01T07:42:47;20.60;;;15.30;;
51925;SDS011;37952;51.938;15.480;2023-03-01T07:45:50;23.70;;;17.50;;
51925;SDS011;37952;51.938;15.480;2023-03-01T07:48:54;21.90;;;16.80;;
51925;SDS011;37952;51.938;15.480;2023-03-01T07:51:57;22.80;;;16.60;;
51925;SDS011;37952;51.938;15.480;2023-03-01T07:55:00;25.70;;;17.80;;
51925;SDS011;37952;51.938;15.480;2023-03-01T08:01:56;24.70;;;18.00;;
51925;SDS011;37952;51.938;15.480;2023-03-01T08:05:00;30.50;;;20.50;;
51925;SDS011;37952;51.938;15.480;2023-03-01T08:12:56;23.90;;;17.00;;
51925;SDS011;37952;51.938;15.480;2023-03-01T08:16:00;25.70;;;19.10;;
51925;SDS011;37952;51.938;15.480;2023-03-01T08:19:08;26.20;;;18.80;;
51925;SDS011;37952;51.938;15.480;2023-03-01T08:22:13;25.40;;;18.80;;
51925;SDS011;37952;51.938;15.480;2023-03-01T08:25:16;29.40;;;19.60;;
51925;SDS011;37952;51.938;15.480;2023-03-01T08:28:19;20.00;;;16.60;;
51925;SDS011;37952;51.938;15.480;2023-03-01T08:34:56;27.90;;;17.50;;
51925;SDS011;37952;51.938;15.480;2023-03-01T08:37:59;24.20;;;16.10;;
51925;SDS011;37952;51.938;15.480;2023-03-01T08:41:02;22.20;;;16.80;;
51925;SDS011;37952;51.938;15.480;2023-03-01T08:44:06;20.10;;;15.20;;
51925;SDS011;37952;51.938;15.480;2023-03-01T08:47:09;19.80;;;15.60;;
51925;SDS011;37952;51.938;15.480;2023-03-01T08:50:12;19.90;;;15.70;;
51925;SDS011;37952;51.938;15.480;2023-03-01T08:53:15;18.30;;;14.90;;
51925;SDS011;37952;51.938;15.480;2023-03-01T08:56:18;22.60;;;14.70;;
51925;SDS011;37952;51.938;15.480;2023-03-01T08:59:21;21.10;;;14.80;;
51925;SDS011;37952;51.938;15.480;2023-03-01T09:02:24;20.10;;;14.00;;
51925;SDS011;37952;51.938;15.480;2023-03-01T09:05:27;19.30;;;14.90;;
51925;SDS011;37952;51.938;15.480;2023-03-01T09:18:21;17.30;;;13.90;;
51925;SDS011;37952;51.938;15.480;2023-03-01T09:21:24;22.40;;;16.20;;
51925;SDS011;37952;51.938;15.480;2023-03-01T09:24:41;22.40;;;15.00;;
51925;SDS011;37952;51.938;15.480;2023-03-01T09:27:44;22.20;;;16.30;;
51925;SDS011;37952;51.938;15.480;2023-03-01T09:30:47;29.40;;;16.40;;
51925;SDS011;37952;51.938;15.480;2023-03-01T09:38:45;21.80;;;15.80;;
51925;SDS011;37952;51.938;15.480;2023-03-01T09:42:01;27.70;;;16.10;;
51925;SDS011;37952;51.938;15.480;2023-03-01T09:45:10;23.50;;;16.90;;
51925;SDS011;37952;51.938;15.480;2023-03-01T09:48:29;20.60;;;15.90;;
51925;SDS011;37952;51.938;15.480;2023-03-01T09:51:59;23.30;;;16.00;;
51925;SDS011;37952;51.938;15.480;2023-03-01T09:55:29;19.30;;;14.70;;
51925;SDS011;37952;51.938;15.480;2023-03-01T09:58:50;20.30;;;15.30;;
51925;SDS011;37952;51.938;15.480;2023-03-01T10:08:56;26.60;;;16.60;;
51925;SDS011;37952;51.938;15.480;2023-03-01T10:12:06;23.00;;;15.80;;
51925;SDS011;37952;51.938;15.480;2023-03-01T10:20:24;17.40;;;13.40;;
51925;SDS011;37952;51.938;15.480;2023-03-01T10:23:31;18.40;;;14.20;;
51925;SDS011;37952;51.938;15.480;2023-03-01T10:37:46;16.40;;;11.00;;
51925;SDS011;37952;51.938;15.480;2023-03-01T10:41:06;17.00;;;12.00;;
51925;SDS011;37952;51.938;15.480;2023-03-01T10:44:09;14.40;;;11.70;;
51925;SDS011;37952;51.938;15.480;2023-03-01T10:47:38;16.40;;;12.50;;
51925;SDS011;37952;51.938;15.480;2023-03-01T10:56:54;16.30;;;11.20;;
51925;SDS011;37952;51.938;15.480;2023-03-01T11:03:35;13.40;;;10.90;;
51925;SDS011;37952;51.938;15.480;2023-03-01T11:06:40;10.40;;;8.90;;
51925;SDS011;37952;51.938;15.480;2023-03-01T11:09:44;14.70;;;9.60;;
51925;SDS011;37952;51.938;15.480;2023-03-01T11:17:40;10.30;;;8.40;;
51925;SDS011;37952;51.938;15.480;2023-03-01T11:20:58;7.70;;;7.00;;
51925;SDS011;37952;51.938;15.480;2023-03-01T11:24:05;8.80;;;7.20;;
51925;SDS011;37952;51.938;15.480;2023-03-01T11:27:23;7.50;;;6.80;;
51925;SDS011;37952;51.938;15.480;2023-03-01T11:34:31;8.80;;;7.50;;
51925;SDS011;37952;51.938;15.480;2023-03-01T11:37:54;7.80;;;7.00;;
51925;SDS011;37952;51.938;15.480;2023-03-01T11:44:31;7.10;;;6.40;;
51925;SDS011;37952;51.938;15.480;2023-03-01T11:50:52;6.10;;;5.60;;
51925;SDS011;37952;51.938;15.480;2023-03-01T11:54:13;6.40;;;5.80;;
51925;SDS011;37952;51.938;15.480;2023-03-01T11:57:43;6.30;;;5.30;;
51925;SDS011;37952;51.938;15.480;2023-03-01T12:03:57;6.50;;;6.00;;
51925;SDS011;37952;51.938;15.480;2023-03-01T12:10:44;9.40;;;5.20;;
51925;SDS011;37952;51.938;15.480;2023-03-01T12:35:13;6.70;;;6.20;;
51925;SDS011;37952;51.938;15.480;2023-03-01T12:38:50;6.50;;;6.00;;
51925;SDS011;37952;51.938;15.480;2023-03-01T12:42:19;7.70;;;6.50;;
51925;SDS011;37952;51.938;15.480;2023-03-01T12:50:23;6.70;;;6.10;;
51925;SDS011;37952;51.938;15.480;2023-03-01T12:58:20;6.30;;;5.80;;
51925;SDS011;37952;51.938;15.480;2023-03-01T13:05:29;9.20;;;7.60;;
51925;SDS011;37952;51.938;15.480;2023-03-01T13:12:00;9.00;;;7.40;;
51925;SDS011;37952;51.938;15.480;2023-03-01T13:15:24;7.50;;;6.80;;
51925;SDS011;37952;51.938;15.480;2023-03-01T13:18:40;8.00;;;6.20;;
51925;SDS011;37952;51.938;15.480;2023-03-01T13:21:43;7.00;;;6.40;;
51925;SDS011;37952;51.938;15.480;2023-03-01T13:39:40;6.90;;;6.30;;
51925;SDS011;37952;51.938;15.480;2023-03-01T13:42:43;7.70;;;6.70;;
51925;SDS011;37952;51.938;15.480;2023-03-01T13:45:57;7.70;;;6.70;;
51925;SDS011;37952;51.938;15.480;2023-03-01T13:49:01;7.20;;;6.50;;
51925;SDS011;37952;51.938;15.480;2023-03-01T13:52:04;10.10;;;6.80;;
51925;SDS011;37952;51.938;15.480;2023-03-01T14:01:57;7.80;;;6.70;;
51925;SDS011;37952;51.938;15.480;2023-03-01T14:05:02;9.10;;;7.00;;
51925;SDS011;37952;51.938;15.480;2023-03-01T14:08:17;7.00;;;6.40;;
51925;SDS011;37952;51.938;15.480;2023-03-01T14:11:26;9.80;;;7.20;;
51925;SDS011;37952;51.938;15.480;2023-03-01T14:14:42;7.20;;;6.50;;
51925;SDS011;37952;51.938;15.480;2023-03-01T14:24:01;7.10;;;6.00;;
51925;SDS011;37952;51.938;15.480;2023-03-01T14:27:04;6.80;;;6.20;;
51925;SDS011;37952;51.938;15.480;2023-03-01T14:37:53;10.70;;;7.40;;
51925;SDS011;37952;51.938;15.480;2023-03-01T14:40:57;8.60;;;7.60;;
51925;SDS011;37952;51.938;15.480;2023-03-01T14:44:12;9.90;;;7.60;;
51925;SDS011;37952;51.938;15.480;2023-03-01T14:50:40;10.90;;;7.90;;
51925;SDS011;37952;51.938;15.480;2023-03-01T14:56:53;8.00;;;7.30;;
51925;SDS011;37952;51.938;15.480;2023-03-01T15:00:03;10.50;;;7.10;;
51925;SDS011;37952;51.938;15.480;2023-03-01T15:07:58;7.70;;;6.20;;
51925;SDS011;37952;51.938;15.480;2023-03-01T15:17:50;7.00;;;5.80;;
51925;SDS011;37952;51.938;15.480;2023-03-01T15:21:15;12.00;;;6.50;;
51925;SDS011;37952;51.938;15.480;2023-03-01T15:24:25;10.10;;;6.40;;
51925;SDS011;37952;51.938;15.480;2023-03-01T15:27:30;7.30;;;6.60;;
51925;SDS011;37952;51.938;15.480;2023-03-01T15:30:33;7.60;;;6.90;;
51925;SDS011;37952;51.938;15.480;2023-03-01T15:37:47;10.60;;;8.70;;
51925;SDS011;37952;51.938;15.480;2023-03-01T15:40:52;9.60;;;8.00;;
51925;SDS011;37952;51.938;15.480;2023-03-01T15:43:55;9.60;;;7.90;;
51925;SDS011;37952;51.938;15.480;2023-03-01T15:46:59;11.10;;;8.00;;
51925;SDS011;37952;51.938;15.480;2023-03-01T15:50:03;10.20;;;7.80;;
51925;SDS011;37952;51.938;15.480;2023-03-01T15:53:10;10.00;;;7.70;;
51925;SDS011;37952;51.938;15.480;2023-03-01T15:56:15;9.00;;;7.80;;
51925;SDS011;37952;51.938;15.480;2023-03-01T15:59:18;10.90;;;7.60;;
51925;SDS011;37952;51.938;15.480;2023-03-01T16:02:22;9.50;;;7.80;;
51925;SDS011;37952;51.938;15.480;2023-03-01T16:05:27;11.30;;;7.60;;
51925;SDS011;37952;51.938;15.480;2023-03-01T16:08:33;11.00;;;6.50;;
51925;SDS011;37952;51.938;15.480;2023-03-01T16:11:36;7.40;;;6.60;;
51925;SDS011;37952;51.938;15.480;2023-03-01T16:14:40;9.80;;;8.00;;
51925;SDS011;37952;51.938;15.480;2023-03-01T16:17:44;8.60;;;7.70;;
51925;SDS011;37952;51.938;15.480;2023-03-01T16:20:47;9.80;;;7.80;;
51925;SDS011;37952;51.938;15.480;2023-03-01T16:23:51;10.40;;;9.20;;
51925;SDS011;37952;51.938;15.480;2023-03-01T16:26:59;11.20;;;8.20;;
51925;SDS011;37952;51.938;15.480;2023-03-01T16:30:02;12.90;;;8.50;;
51925;SDS011;37952;51.938;15.480;2023-03-01T16:33:05;13.80;;;9.30;;
51925;SDS011;37952;51.938;15.480;2023-03-01T16:36:30;16.40;;;12.00;;
51925;SDS011;37952;51.938;15.480;2023-03-01T16:39:33;12.70;;;9.40;;
51925;SDS011;37952;51.938;15.480;2023-03-01T16:42:36;20.90;;;10.20;;
51925;SDS011;37952;51.938;15.480;2023-03-01T16:45:41;18.10;;;11.10;;
51925;SDS011;37952;51.938;15.480;2023-03-01T16:48:47;13.60;;;10.00;;
51925;SDS011;37952;51.938;15.480;2023-03-01T16:51:53;14.40;;;10.80;;
51925;SDS011;37952;51.938;15.480;2023-03-01T16:54:56;16.80;;;12.00;;
51925;SDS011;37952;51.938;15.480;2023-03-01T16:57:59;18.70;;;12.30;;
51925;SDS011;37952;51.938;15.480;2023-03-01T17:01:07;22.40;;;14.70;;
51925;SDS011;37952;51.938;15.480;2023-03-01T17:04:13;24.20;;;15.50;;
51925;SDS011;37952;51.938;15.480;2023-03-01T17:07:16;29.00;;;15.80;;
51925;SDS011;37952;51.938;15.480;2023-03-01T17:10:19;22.30;;;14.00;;
51925;SDS011;37952;51.938;15.480;2023-03-01T17:18:10;24.80;;;14.00;;
51925;SDS011;37952;51.938;15.480;2023-03-01T17:21:13;21.40;;;14.10;;
51925;SDS011;37952;51.938;15.480;2023-03-01T17:24:17;25.70;;;14.50;;
51925;SDS011;37952;51.938;15.480;2023-03-01T17:27:21;22.20;;;14.70;;
51925;SDS011;37952;51.938;15.480;2023-03-01T17:30:26;21.50;;;14.50;;
51925;SDS011;37952;51.938;15.480;2023-03-01T17:33:30;22.20;;;15.00;;
51925;SDS011;37952;51.938;15.480;2023-03-01T17:36:33;24.00;;;14.20;;
51925;SDS011;37952;51.938;15.480;2023-03-01T17:39:45;18.50;;;13.60;;
51925;SDS011;37952;51.938;15.480;2023-03-01T17:42:48;20.10;;;14.00;;
51925;SDS011;37952;51.938;15.480;2023-03-01T17:45:51;17.10;;;12.30;;
51925;SDS011;37952;51.938;15.480;2023-03-01T17:48:56;19.80;;;11.80;;
51925;SDS011;37952;51.938;15.480;2023-03-01T17:51:59;13.30;;;10.70;;
51925;SDS011;37952;51.938;15.480;2023-03-01T18:04:45;14.00;;;9.60;;
51925;SDS011;37952;51.938;15.480;2023-03-01T18:07:50;18.10;;;11.30;;
51925;SDS011;37952;51.938;15.480;2023-03-01T18:10:57;16.50;;;11.40;;
51925;SDS011;37952;51.938;15.480;2023-03-01T18:14:01;14.10;;;11.10;;
51925;SDS011;37952;51.938;15.480;2023-03-01T18:17:04;17.30;;;11.10;;
51925;SDS011;37952;51.938;15.480;2023-03-01T18:20:13;15.50;;;11.20;;
51925;SDS011;37952;51.938;15.480;2023-03-01T18:23:23;15.80;;;10.60;;
51925;SDS011;37952;51.938;15.480;2023-03-01T18:26:26;14.60;;;9.70;;
51925;SDS011;37952;51.938;15.480;2023-03-01T18:29:31;14.80;;;10.20;;
51925;SDS011;37952;51.938;15.480;2023-03-01T18:32:34;13.90;;;9.70;;
51925;SDS011;37952;51.938;15.480;2023-03-01T18:35:37;14.20;;;9.60;;
51925;SDS011;37952;51.938;15.480;2023-03-01T18:38:41;12.80;;;9.20;;
51925;SDS011;37952;51.938;15.480;2023-03-01T18:41:44;15.30;;;10.10;;
51925;SDS011;37952;51.938;15.480;2023-03-01T18:44:47;16.10;;;10.50;;
51925;SDS011;37952;51.938;15.480;2023-03-01T18:47:50;19.90;;;11.30;;
51925;SDS011;37952;51.938;15.480;2023-03-01T18:54:25;16.60;;;11.00;;
51925;SDS011;37952;51.938;15.480;2023-03-01T18:57:28;16.60;;;10.60;;
51925;SDS011;37952;51.938;15.480;2023-03-01T19:10:14;12.70;;;9.80;;
51925;SDS011;37952;51.938;15.480;2023-03-01T19:13:20;13.80;;;9.80;;
51925;SDS011;37952;51.938;15.480;2023-03-01T19:16:24;13.20;;;10.70;;
51925;SDS011;37952;51.938;15.480;2023-03-01T19:19:30;13.30;;;10.70;;
51925;SDS011;37952;51.938;15.480;2023-03-01T19:27:31;16.60;;;12.60;;
51925;SDS011;37952;51.938;15.480;2023-03-01T19:30:34;20.00;;;13.60;;
51925;SDS011;37952;51.938;15.480;2023-03-01T19:33:37;21.90;;;14.30;;
51925;SDS011;37952;51.938;15.480;2023-03-01T19:36:41;16.50;;;13.30;;
51925;SDS011;37952;51.938;15.480;2023-03-01T19:39:46;16.70;;;12.90;;
51925;SDS011;37952;51.938;15.480;2023-03-01T19:42:49;17.30;;;12.70;;
51925;SDS011;37952;51.938;15.480;2023-03-01T19:45:53;16.00;;;12.20;;
51925;SDS011;37952;51.938;15.480;2023-03-01T19:48:57;11.90;;;10.60;;
51925;SDS011;37952;51.938;15.480;2023-03-01T19:52:02;11.90;;;9.90;;
51925;SDS011;37952;51.938;15.480;2023-03-01T19:58:38;14.20;;;9.40;;
51925;SDS011;37952;51.938;15.480;2023-03-01T20:01:41;14.10;;;9.70;;
51925;SDS011;37952;51.938;15.480;2023-03-01T20:04:44;12.40;;;8.90;;
51925;SDS011;37952;51.938;15.480;2023-03-01T20:11:42;11.80;;;9.40;;
51925;SDS011;37952;51.938;15.480;2023-03-01T20:14:45;11.80;;;8.50;;
51925;SDS011;37952;51.938;15.480;2023-03-01T20:17:50;12.00;;;8.90;;
51925;SDS011;37952;51.938;15.480;2023-03-01T20:20:53;10.60;;;8.80;;
51925;SDS011;37952;51.938;15.480;2023-03-01T20:24:00;12.10;;;8.30;;
51925;SDS011;37952;51.938;15.480;2023-03-01T20:27:03;10.50;;;9.10;;
51925;SDS011;37952;51.938;15.480;2023-03-01T20:30:06;13.40;;;9.00;;
51925;SDS011;37952;51.938;15.480;2023-03-01T20:33:09;11.80;;;8.30;;
51925;SDS011;37952;51.938;15.480;2023-03-01T20:36:13;8.60;;;7.70;;
51925;SDS011;37952;51.938;15.480;2023-03-01T20:39:17;10.50;;;8.50;;
51925;SDS011;37952;51.938;15.480;2023-03-01T20:42:20;10.50;;;9.20;;
51925;SDS011;37952;51.938;15.480;2023-03-01T20:45:23;9.30;;;8.40;;
51925;SDS011;37952;51.938;15.480;2023-03-01T20:48:29;9.70;;;8.60;;
51925;SDS011;37952;51.938;15.480;2023-03-01T20:51:32;9.40;;;8.50;;
51925;SDS011;37952;51.938;15.480;2023-03-01T20:54:35;9.50;;;8.30;;
51925;SDS011;37952;51.938;15.480;2023-03-01T21:01:08;12.20;;;9.80;;
51925;SDS011;37952;51.938;15.480;2023-03-01T21:04:13;14.30;;;10.20;;
51925;SDS011;37952;51.938;15.480;2023-03-01T21:11:59;12.30;;;10.30;;
51925;SDS011;37952;51.938;15.480;2023-03-01T21:19:02;16.00;;;11.50;;
51925;SDS011;37952;51.938;15.480;2023-03-01T21:22:12;22.50;;;15.00;;
51925;SDS011;37952;51.938;15.480;2023-03-01T21:25:16;22.80;;;14.80;;
51925;SDS011;37952;51.938;15.480;2023-03-01T21:28:19;21.80;;;14.40;;
51925;SDS011;37952;51.938;15.480;2023-03-01T21:31:24;24.00;;;15.60;;
51925;SDS011;37952;51.938;15.480;2023-03-01T21:34:33;20.50;;;15.00;;
51925;SDS011;37952;51.938;15.480;2023-03-01T21:37:37;25.10;;;15.30;;
51925;SDS011;37952;51.938;15.480;2023-03-01T21:40:40;19.50;;;14.10;;
51925;SDS011;37952;51.938;15.480;2023-03-01T21:43:43;19.30;;;13.40;;
51925;SDS011;37952;51.938;15.480;2023-03-01T21:46:48;20.20;;;13.20;;
51925;SDS011;37952;51.938;15.480;2023-03-01T21:49:51;17.30;;;12.70;;
51925;SDS011;37952;51.938;15.480;2023-03-01T21:52:58;16.70;;;13.60;;
51925;SDS011;37952;51.938;15.480;2023-03-01T21:56:01;18.80;;;13.30;;
51925;SDS011;37952;51.938;15.480;2023-03-01T21:59:05;19.20;;;13.80;;
51925;SDS011;37952;51.938;15.480;2023-03-01T22:02:11;20.60;;;13.70;;
51925;SDS011;37952;51.938;15.480;2023-03-01T22:05:15;25.40;;;15.70;;
51925;SDS011;37952;51.938;15.480;2023-03-01T22:08:18;25.80;;;15.00;;
51925;SDS011;37952;51.938;15.480;2023-03-01T22:11:22;26.80;;;15.50;;
51925;SDS011;37952;51.938;15.480;2023-03-01T22:14:28;26.70;;;17.00;;
51925;SDS011;37952;51.938;15.480;2023-03-01T22:17:32;31.20;;;17.30;;
51925;SDS011;37952;51.938;15.480;2023-03-01T22:20:35;27.30;;;15.80;;
51925;SDS011;37952;51.938;15.480;2023-03-01T22:23:43;25.40;;;16.20;;
51925;SDS011;37952;51.938;15.480;2023-03-01T22:26:47;29.20;;;18.10;;
51925;SDS011;37952;51.938;15.480;2023-03-01T22:29:51;31.90;;;18.60;;
51925;SDS011;37952;51.938;15.480;2023-03-01T22:32:54;30.30;;;19.80;;
51925;SDS011;37952;51.938;15.480;2023-03-01T22:35:57;31.20;;;19.50;;
51925;SDS011;37952;51.938;15.480;2023-03-01T22:39:01;31.00;;;19.20;;
51925;SDS011;37952;51.938;15.480;2023-03-01T22:42:04;26.20;;;18.40;;
51925;SDS011;37952;51.938;15.480;2023-03-01T22:45:07;32.90;;;19.30;;
51925;SDS011;37952;51.938;15.480;2023-03-01T22:48:10;31.80;;;19.20;;
51925;SDS011;37952;51.938;15.480;2023-03-01T22:54:52;30.70;;;18.20;;
51925;SDS011;37952;51.938;15.480;2023-03-01T22:57:56;22.70;;;16.70;;
51925;SDS011;37952;51.938;15.480;2023-03-01T23:05:48;28.50;;;16.40;;
51925;SDS011;37952;51.938;15.480;2023-03-01T23:08:52;23.20;;;15.40;;
51925;SDS011;37952;51.938;15.480;2023-03-01T23:11:57;31.30;;;17.20;;
51925;SDS011;37952;51.938;15.480;2023-03-01T23:15:01;33.10;;;18.00;;
51925;SDS011;37952;51.938;15.480;2023-03-01T23:18:04;23.20;;;16.10;;
51925;SDS011;37952;51.938;15.480;2023-03-01T23:25:14;23.90;;;14.30;;
51925;SDS011;37952;51.938;15.480;2023-03-01T23:32:32;25.30;;;15.30;;
51925;SDS011;37952;51.938;15.480;2023-03-01T23:35:42;22.60;;;15.00;;